Lucy Hannah — WDC7682 — position and weather

sailwx.info

Track history (hours):
 
Tides and Currents Weather Stations Pressure Air Temp Water Temp Dewpoint Dewpoint Depression Visibility Wind Speed Wind Dir Waves Ship Positions

Lucy Hannah

Owner: D&S Marine Service,LLC., Houma, LA. More information available from US FCC via Universal Licensing System and Coast Guard Vessel Documentation Center.

Last reported at 2018-Jan-19 13:40 UTC. Time now 2018-Jan-23 11:58 UTC.
Position N 29°60' W 093°55'.

Length 110 m; draft 3 m.

Type: . MMSI: 367075110.

Date/timePositionNaut miles runAvg speedWind from/ knotsBaromVisibWave heightAir tempDewpointWater temp
2018-Jan-19 13:40N 29°60' W 093°55'0 0.0
2018-Jan-19 11:43N 29°60' W 093°55'0 0.0
2018-Jan-19 11:30N 29°60' W 093°55'0 0.0
2018-Jan-19 10:52N 29°60' W 093°55'58 1.9
2018-Jan-18 04:36N 29°31' W 094°53'1 5.7
2018-Jan-18 04:28N 29°31' W 094°53'2 4.7
2018-Jan-18 04:00N 29°33' W 094°55'3 5.0
2018-Jan-18 03:30N 29°35' W 094°56'3 5.1
2018-Jan-18 03:00N 29°38' W 094°58'2 4.4
2018-Jan-18 02:30N 29°40' W 094°58'3 5.2
2018-Jan-18 02:00N 29°42' W 094°60'  
Track history (hours):
 
Tides and Currents Weather Stations Pressure Air Temp Water Temp Dewpoint Dewpoint Depression Visibility Wind Speed Wind Dir Waves Ship Positions

Lucy Hannah

Owner: D&S Marine Service,LLC., Houma, LA. More information available from US FCC via Universal Licensing System and Coast Guard Vessel Documentation Center.

Last reported at 2018-Jan-19 13:40 UTC. Time now 2018-Jan-23 11:58 UTC.
Position N 29°60' W 093°55'.

Length 110 m; draft 3 m.

Type: . MMSI: 367075110.

Date/timePositionNaut miles runAvg speedWind from/ knotsBaromVisibWave heightAir tempDewpointWater temp
2018-Jan-19 13:40N 29°60' W 093°55'0 0.0
2018-Jan-19 11:43N 29°60' W 093°55'0 0.0
2018-Jan-19 11:30N 29°60' W 093°55'0 0.0
2018-Jan-19 10:52N 29°60' W 093°55'58 1.9
2018-Jan-18 04:36N 29°31' W 094°53'1 5.7
2018-Jan-18 04:28N 29°31' W 094°53'2 4.7
2018-Jan-18 04:00N 29°33' W 094°55'3 5.0
2018-Jan-18 03:30N 29°35' W 094°56'3 5.1
2018-Jan-18 03:00N 29°38' W 094°58'2 4.4
2018-Jan-18 02:30N 29°40' W 094°58'3 5.2
2018-Jan-18 02:00N 29°42' W 094°60'  

Dump ship's entire track history